createdAt,value
2016-12-30T00:00:32.775Z,11.99
2016-12-30T00:01:32.757Z,12.18
2016-12-30T00:02:32.737Z,12.18
2016-12-30T00:03:32.723Z,12.27
2016-12-30T00:04:32.699Z,11.52
2016-12-30T00:05:32.685Z,11.61
2016-12-30T00:06:32.668Z,11.52
2016-12-30T00:07:32.654Z,10.76
2016-12-30T00:08:32.630Z,9.72
2016-12-30T00:09:32.611Z,10
2016-12-30T00:10:32.594Z,9.81
2016-12-30T00:11:32.575Z,9.34
2016-12-30T00:12:32.558Z,8.69
2016-12-30T00:13:32.539Z,9.16
2016-12-30T00:14:32.517Z,9.53
2016-12-30T00:15:32.503Z,10.1
2016-12-30T00:16:32.482Z,10.38
2016-12-30T00:17:32.465Z,8.97
2016-12-30T00:18:32.445Z,8.69
2016-12-30T00:19:32.431Z,8.5
2016-12-30T00:20:32.808Z,8.78
2016-12-30T00:21:32.395Z,9.34
2016-12-30T00:22:32.377Z,9.44
2016-12-30T00:23:32.356Z,10.48
2016-12-30T00:24:32.340Z,10.66
2016-12-30T00:25:32.325Z,10.95
2016-12-30T00:26:32.300Z,11.61
2016-12-30T00:27:32.284Z,11.9
2016-12-30T00:28:32.266Z,11.99
2016-12-30T00:29:32.246Z,11.71
2016-12-30T00:30:32.226Z,11.23
2016-12-30T00:31:32.213Z,12.08
2016-12-30T00:32:32.593Z,11.23
2016-12-30T00:33:32.173Z,10.95
2016-12-30T00:34:32.157Z,11.14
2016-12-30T00:35:32.134Z,11.14
2016-12-30T00:36:32.115Z,10.66
2016-12-30T00:37:32.104Z,10.38
2016-12-30T00:38:32.081Z,9.53
2016-12-30T00:39:32.064Z,9.63
2016-12-30T00:40:32.045Z,10
2016-12-30T00:41:32.030Z,9.53
2016-12-30T00:42:32.009Z,9.91
2016-12-30T00:43:31.991Z,9.81
2016-12-30T00:44:31.972Z,10
2016-12-30T00:45:32.354Z,10.1
2016-12-30T00:46:31.936Z,10.57
2016-12-30T00:47:31.919Z,11.14
2016-12-30T00:48:31.896Z,11.14
2016-12-30T00:49:31.879Z,11.42
2016-12-30T00:50:31.863Z,11.04
2016-12-30T00:51:31.842Z,11.14
2016-12-30T00:52:31.823Z,10.95
2016-12-30T00:53:31.804Z,10.48
2016-12-30T00:54:31.789Z,10.1
2016-12-30T00:55:31.768Z,10.66
2016-12-30T00:56:31.749Z,11.52
2016-12-30T00:57:31.734Z,11.99
2016-12-30T00:58:31.716Z,11.8
2016-12-30T00:59:31.695Z,11.8
2016-12-30T01:00:31.681Z,11.71
2016-12-30T01:01:31.660Z,11.99
2016-12-30T01:02:31.642Z,12.08
2016-12-30T01:03:31.621Z,12.74
2016-12-30T01:04:31.610Z,13.21
2016-12-30T01:05:31.585Z,13.12
2016-12-30T01:06:31.566Z,12.65
2016-12-30T01:07:31.550Z,12.84
2016-12-30T01:08:31.532Z,13.21
2016-12-30T01:09:31.513Z,13.12
2016-12-30T01:10:31.495Z,13.5
2016-12-30T01:11:31.475Z,14.44
2016-12-30T01:12:31.459Z,15.2
2016-12-30T01:13:31.440Z,15.48
2016-12-30T01:14:31.420Z,15.11
2016-12-30T01:15:31.405Z,15.2
2016-12-30T01:16:31.381Z,14.44
2016-12-30T01:17:31.368Z,14.73
2016-12-30T01:18:31.346Z,14.73
2016-12-30T01:19:31.327Z,15.11
2016-12-30T01:20:31.312Z,15.01
2016-12-30T01:21:31.290Z,14.82
2016-12-30T01:22:31.271Z,14.44
2016-12-30T01:23:31.257Z,14.25
2016-12-30T01:24:31.236Z,14.73
2016-12-30T01:25:31.218Z,14.82
2016-12-30T01:26:31.207Z,14.63
2016-12-30T01:27:31.180Z,14.73
2016-12-30T01:28:31.162Z,14.63
2016-12-30T01:29:31.145Z,15.29
2016-12-30T01:30:31.125Z,15.67
2016-12-30T01:31:31.105Z,16.24
2016-12-30T01:32:31.088Z,16.33
2016-12-30T01:33:31.072Z,16.33
2016-12-30T01:34:31.054Z,16.42
2016-12-30T01:35:31.033Z,16.33
2016-12-30T01:36:31.012Z,15.95
2016-12-30T01:37:30.997Z,15.95
2016-12-30T01:38:30.978Z,15.58
2016-12-30T01:39:30.963Z,15.2
2016-12-30T01:40:30.943Z,15.29
2016-12-30T01:41:30.924Z,15.2
2016-12-30T01:42:30.905Z,15.29
2016-12-30T01:43:30.888Z,15.2
2016-12-30T01:44:30.871Z,15.58
2016-12-30T01:45:30.852Z,15.2
2016-12-30T01:46:30.829Z,14.35
2016-12-30T01:47:30.811Z,14.35
2016-12-30T01:48:30.796Z,14.73
2016-12-30T01:49:30.776Z,14.92
2016-12-30T01:50:30.758Z,14.16
2016-12-30T01:51:30.740Z,13.78
2016-12-30T01:52:30.721Z,13.78
2016-12-30T01:53:30.702Z,13.68
2016-12-30T01:54:30.680Z,13.5
2016-12-30T01:55:30.668Z,13.4
2016-12-30T01:56:30.644Z,13.02
2016-12-30T01:57:30.627Z,12.74
2016-12-30T01:58:30.612Z,13.02
2016-12-30T01:59:30.590Z,12.37
2016-12-30T02:00:30.573Z,11.9
2016-12-30T02:01:30.552Z,11.61
2016-12-30T02:02:30.535Z,12.08
2016-12-30T02:03:30.515Z,12.27
2016-12-30T02:04:30.498Z,12.27
2016-12-30T02:05:30.477Z,12.18
2016-12-30T02:06:30.460Z,11.9
2016-12-30T02:07:30.442Z,12.27
2016-12-30T02:08:30.424Z,12.84
2016-12-30T02:09:30.403Z,13.4
2016-12-30T02:10:30.388Z,14.63
2016-12-30T02:11:30.366Z,15.2
2016-12-30T02:12:30.351Z,15.86
2016-12-30T02:13:30.332Z,16.24
2016-12-30T02:14:30.314Z,16.71
2016-12-30T02:15:30.293Z,17.56
2016-12-30T02:16:30.273Z,11.79
2016-12-30T02:17:30.257Z,8.5
2016-12-30T02:18:30.238Z,8.87
2016-12-30T02:19:30.220Z,8.78
2016-12-30T02:20:30.198Z,9.06
2016-12-30T02:21:30.184Z,9.25
2016-12-30T02:22:30.160Z,9.06
2016-12-30T02:23:30.143Z,9.16
2016-12-30T02:24:30.125Z,9.06
2016-12-30T02:25:30.106Z,9.53
2016-12-30T02:26:30.086Z,9.81
2016-12-30T02:27:30.069Z,10.1
2016-12-30T02:28:30.052Z,9.81
2016-12-30T02:29:30.032Z,9.53
2016-12-30T02:30:30.012Z,9.53
2016-12-30T02:31:29.995Z,10.66
2016-12-30T02:32:29.975Z,11.33
2016-12-30T02:33:29.957Z,12.18
2016-12-30T02:34:29.936Z,12.08
2016-12-30T02:35:29.920Z,11.99
2016-12-30T02:36:29.901Z,12.93
2016-12-30T02:37:29.880Z,12.74
2016-12-30T02:38:29.862Z,12.08
2016-12-30T02:39:29.844Z,11.61
2016-12-30T02:40:29.824Z,11.33
2016-12-30T02:41:29.805Z,12.18
2016-12-30T02:42:29.789Z,12.74
2016-12-30T02:43:29.769Z,12.46
2016-12-30T02:44:29.750Z,12.37
2016-12-30T02:45:29.732Z,12.18
2016-12-30T02:46:29.712Z,12.27
2016-12-30T02:47:29.694Z,12.18
2016-12-30T02:48:29.673Z,11.9
2016-12-30T02:49:29.657Z,11.33
2016-12-30T02:50:29.639Z,11.99
2016-12-30T02:51:29.619Z,12.18
2016-12-30T02:52:29.601Z,12.37
2016-12-30T02:53:29.582Z,11.52
2016-12-30T02:54:29.590Z,11.61
2016-12-30T02:55:29.545Z,12.08
2016-12-30T02:56:29.524Z,11.99
2016-12-30T02:57:29.509Z,12.08
2016-12-30T02:58:29.489Z,12.37
2016-12-30T02:59:29.470Z,12.37
2016-12-30T03:00:29.457Z,12.55
2016-12-30T03:01:29.431Z,12.74
2016-12-30T03:02:29.416Z,12.84
2016-12-30T03:03:29.394Z,13.12
2016-12-30T03:04:29.376Z,13.87
2016-12-30T03:05:29.359Z,14.35
2016-12-30T03:06:29.339Z,14.82
2016-12-30T03:07:29.322Z,14.63
2016-12-30T03:08:29.301Z,15.01
2016-12-30T03:09:29.282Z,15.95
2016-12-30T03:10:29.267Z,15.95
2016-12-30T03:11:29.249Z,15.57
2016-12-30T03:12:29.228Z,15.58
2016-12-30T03:13:29.217Z,15
2016-12-30T03:14:29.189Z,13.78
2016-12-30T03:15:29.174Z,13.12
2016-12-30T03:16:29.151Z,13.68
2016-12-30T03:17:29.135Z,14.44
2016-12-30T03:18:29.116Z,14.72
2016-12-30T03:19:29.102Z,14.72
2016-12-30T03:20:29.082Z,15.38
2016-12-30T03:21:29.057Z,15.77
2016-12-30T03:22:29.043Z,15.94
2016-12-30T03:23:29.025Z,15.47
2016-12-30T03:24:29.007Z,15
2016-12-30T03:25:28.984Z,15
2016-12-30T03:26:28.966Z,14.81
2016-12-30T03:27:28.947Z,14.81
2016-12-30T03:28:28.926Z,15.19
2016-12-30T03:29:28.909Z,15
2016-12-30T03:30:28.892Z,15
2016-12-30T03:31:28.873Z,15.58
2016-12-30T03:32:28.852Z,16.7
2016-12-30T03:33:28.837Z,18.02
2016-12-30T03:34:28.819Z,18.77
2016-12-30T03:35:28.799Z,19.25
2016-12-30T03:36:28.780Z,19.43
2016-12-30T03:37:28.761Z,19.25
2016-12-30T03:38:28.743Z,19.72
2016-12-30T03:39:28.723Z,19.72
2016-12-30T03:40:28.703Z,20.1
2016-12-30T03:41:28.688Z,20.66
2016-12-30T03:42:28.667Z,20.85
2016-12-30T03:43:28.645Z,21.23
2016-12-30T03:44:28.627Z,21.42
2016-12-30T03:45:28.611Z,21.42
2016-12-30T03:46:28.589Z,21.23
2016-12-30T03:47:28.570Z,20.38
2016-12-30T03:48:28.951Z,19.81
2016-12-30T03:49:28.535Z,19.53
2016-12-30T03:50:28.514Z,19.81
2016-12-30T03:51:28.496Z,19.43
2016-12-30T03:52:28.482Z,18.4
2016-12-30T03:53:28.461Z,16.7
2016-12-30T03:54:28.437Z,17.27
2016-12-30T03:55:28.422Z,17.17
2016-12-30T03:56:28.403Z,17.55
2016-12-30T03:57:28.383Z,18.02
2016-12-30T03:58:28.364Z,18.4
2016-12-30T03:59:28.347Z,18.59
2016-12-30T04:00:28.331Z,18.68
2016-12-30T04:01:28.307Z,19.53
2016-12-30T04:02:28.287Z,19.81
2016-12-30T04:03:28.271Z,20
2016-12-30T04:04:28.252Z,19.25
2016-12-30T04:05:28.234Z,19.06
2016-12-30T04:06:28.216Z,18.68
2016-12-30T04:07:28.196Z,17.83
2016-12-30T04:08:28.177Z,17.46
2016-12-30T04:09:28.156Z,16.8
2016-12-30T04:10:28.140Z,17.17
2016-12-30T04:11:28.118Z,16.98
2016-12-30T04:12:28.101Z,17.36
2016-12-30T04:13:28.079Z,16.61
2016-12-30T04:14:28.062Z,17.27
2016-12-30T04:15:28.046Z,17.83
2016-12-30T04:16:28.027Z,17.83
2016-12-30T04:17:28.039Z,18.3
2016-12-30T04:18:27.987Z,18.96
2016-12-30T04:19:27.971Z,20.19
2016-12-30T04:20:27.948Z,20.76
2016-12-30T04:21:27.931Z,20.76
2016-12-30T04:22:27.911Z,21.23
2016-12-30T04:23:27.891Z,20.95
2016-12-30T04:24:27.871Z,21.04
2016-12-30T04:25:27.855Z,20.19
2016-12-30T04:26:27.834Z,19.91
2016-12-30T04:27:27.816Z,19.43
2016-12-30T04:28:27.795Z,19.53
2016-12-30T04:29:27.778Z,19.53
2016-12-30T04:30:27.760Z,20.1
2016-12-30T04:31:27.739Z,20.66
2016-12-30T04:32:27.725Z,21.23
2016-12-30T04:33:27.700Z,21.23
2016-12-30T04:34:27.682Z,21.04
2016-12-30T04:35:27.663Z,19.62
2016-12-30T04:36:27.644Z,18.4
2016-12-30T04:37:27.642Z,18.3
2016-12-30T04:38:27.607Z,19.06
2016-12-30T04:39:27.586Z,19.43
2016-12-30T04:40:27.571Z,20.1
2016-12-30T04:41:27.549Z,20.66
2016-12-30T04:42:27.531Z,21.33
2016-12-30T04:43:27.512Z,21.14
2016-12-30T04:44:27.492Z,21.23
2016-12-30T04:45:27.474Z,21.04
2016-12-30T04:46:27.453Z,21.04
2016-12-30T04:47:27.435Z,21.14
2016-12-30T04:48:27.416Z,20.66
2016-12-30T04:49:27.396Z,21.23
2016-12-30T04:50:27.379Z,20.76
2016-12-30T04:51:27.362Z,20.76
2016-12-30T04:52:27.343Z,21.42
2016-12-30T04:53:27.322Z,21.51
2016-12-30T04:54:27.303Z,22.55
2016-12-30T04:55:27.284Z,22.45
2016-12-30T04:56:27.265Z,22.64
2016-12-30T04:57:27.245Z,21.33
2016-12-30T04:58:27.225Z,20.85
2016-12-30T04:59:27.209Z,19.81
2016-12-30T05:00:27.187Z,19.72
2016-12-30T05:01:27.171Z,19.25
2016-12-30T05:02:27.149Z,19.53
2016-12-30T05:03:27.131Z,19.91
2016-12-30T05:04:27.112Z,20.1
2016-12-30T05:05:27.092Z,20.66
2016-12-30T05:06:27.072Z,21.33
2016-12-30T05:07:27.053Z,20.95
2016-12-30T05:08:27.034Z,20.66
2016-12-30T05:09:27.016Z,21.33
2016-12-30T05:10:26.997Z,21.42
2016-12-30T05:11:26.987Z,22.55
2016-12-30T05:12:26.957Z,22.93
2016-12-30T05:13:26.941Z,23.21
2016-12-30T05:14:26.921Z,23.49
2016-12-30T05:15:26.899Z,23.59
2016-12-30T05:16:26.882Z,23.49
2016-12-30T05:17:26.865Z,23.59
2016-12-30T05:18:26.841Z,23.4
2016-12-30T05:19:26.825Z,22.36
2016-12-30T05:20:26.806Z,22.93
2016-12-30T05:21:26.783Z,23.49
2016-12-30T05:22:26.765Z,23.68
2016-12-30T05:23:26.759Z,22.55
2016-12-30T05:24:26.725Z,22.45
2016-12-30T05:25:26.706Z,22.83
2016-12-30T05:26:26.688Z,23.3
2016-12-30T05:27:26.672Z,23.78
2016-12-30T05:28:26.650Z,23.78
2016-12-30T05:29:26.630Z,23.97
2016-12-30T05:30:26.610Z,23.86
2016-12-30T05:31:26.591Z,23.01
2016-12-30T05:32:26.572Z,22.44
2016-12-30T05:33:26.553Z,20.84
2016-12-30T05:34:26.533Z,19.81
2016-12-30T05:35:26.516Z,19.43
2016-12-30T05:36:26.496Z,18.96
2016-12-30T05:37:26.475Z,19.15
2016-12-30T05:38:26.464Z,18.96
2016-12-30T05:39:26.440Z,18.3
2016-12-30T05:40:26.420Z,18.3
2016-12-30T05:41:26.400Z,18.3
2016-12-30T05:42:26.384Z,18.3
2016-12-30T05:43:26.364Z,18.4
2016-12-30T05:44:26.340Z,18.3
2016-12-30T05:45:26.322Z,18.12
2016-12-30T05:46:26.302Z,17.55
2016-12-30T05:47:26.282Z,17.08
2016-12-30T05:48:26.264Z,16.98
2016-12-30T05:49:26.247Z,17.17
2016-12-30T05:50:26.226Z,17.55
2016-12-30T05:51:26.207Z,17.17
2016-12-30T05:52:26.186Z,17.36
2016-12-30T05:53:26.167Z,17.27
2016-12-30T05:54:26.149Z,17.17
2016-12-30T05:55:26.130Z,17.17
2016-12-30T05:56:26.107Z,17.36
2016-12-30T05:57:26.092Z,17.65
2016-12-30T05:58:26.069Z,17.36
2016-12-30T05:59:26.051Z,17.17
2016-12-30T06:00:26.032Z,17.17
2016-12-30T06:01:26.015Z,16.23
2016-12-30T06:02:25.992Z,16.32
2016-12-30T06:03:25.973Z,15.57
2016-12-30T06:04:25.959Z,15.47
2016-12-30T06:05:25.935Z,15.85
2016-12-30T06:06:25.919Z,15.66
2016-12-30T06:07:25.899Z,16.32
2016-12-30T06:08:25.879Z,16.42
2016-12-30T06:09:25.858Z,16.32
2016-12-30T06:10:25.840Z,15
2016-12-30T06:11:25.821Z,15.28
2016-12-30T06:12:25.802Z,15.66
2016-12-30T06:13:25.783Z,16.42
2016-12-30T06:14:25.762Z,17.46
2016-12-30T06:15:25.746Z,17.74
2016-12-30T06:16:25.723Z,17.46
2016-12-30T06:17:25.709Z,16.7
2016-12-30T06:18:25.687Z,17.17
2016-12-30T06:19:25.714Z,17.55
2016-12-30T06:20:25.651Z,17.83
2016-12-30T06:21:25.626Z,17.55
2016-12-30T06:22:25.608Z,17.36
2016-12-30T06:23:25.590Z,17.46
2016-12-30T06:24:25.572Z,17.93
2016-12-30T06:25:25.553Z,17.83
2016-12-30T06:26:25.532Z,17.93
2016-12-30T06:27:25.512Z,17.83
2016-12-30T06:28:25.497Z,18.21
2016-12-30T06:29:25.478Z,18.49
2016-12-30T06:30:25.455Z,18.68
2016-12-30T06:31:25.435Z,18.4
2016-12-30T06:32:25.417Z,18.3
2016-12-30T06:33:25.398Z,18.02
2016-12-30T06:34:25.378Z,17.17
2016-12-30T06:35:25.360Z,16.13
2016-12-30T06:36:25.341Z,16.32
2016-12-30T06:37:25.322Z,15.94
2016-12-30T06:38:25.300Z,16.32
2016-12-30T06:39:25.285Z,16.7
2016-12-30T06:40:25.263Z,17.55
2016-12-30T06:41:25.244Z,18.3
2016-12-30T06:42:25.223Z,19.15
2016-12-30T06:43:25.213Z,19.06
2016-12-30T06:44:25.188Z,18.49
2016-12-30T06:45:25.565Z,18.3
2016-12-30T06:46:25.148Z,17.83
2016-12-30T06:47:25.135Z,17.65
2016-12-30T06:48:25.110Z,17.55
2016-12-30T06:49:25.096Z,16.32
2016-12-30T06:50:25.073Z,16.61
2016-12-30T06:51:25.056Z,16.51
2016-12-30T06:52:25.032Z,16.61
2016-12-30T06:53:25.022Z,17.55
2016-12-30T06:54:24.995Z,17.93
2016-12-30T06:55:24.977Z,18.4
2016-12-30T06:56:24.956Z,19.15
2016-12-30T06:57:24.951Z,19.15
2016-12-30T06:58:24.920Z,18.77
2016-12-30T06:59:24.904Z,18.12
2016-12-30T07:00:24.884Z,18.12
2016-12-30T07:01:24.863Z,18.68
2016-12-30T07:02:24.844Z,18.49
2016-12-30T07:03:24.821Z,19.15
2016-12-30T07:04:24.802Z,19.43
2016-12-30T07:05:24.785Z,19.81
2016-12-30T07:06:24.764Z,20.38
2016-12-30T07:07:24.751Z,20.66
2016-12-30T07:08:24.727Z,21.23
2016-12-30T07:09:24.708Z,21.14
2016-12-30T07:10:24.691Z,21.04
2016-12-30T07:11:24.673Z,21.14
2016-12-30T07:12:24.654Z,20.85
2016-12-30T07:13:24.640Z,20.19
2016-12-30T07:14:24.614Z,19.81
2016-12-30T07:15:24.594Z,19.72
2016-12-30T07:16:24.573Z,19.91
2016-12-30T07:17:24.555Z,20.19
2016-12-30T07:18:24.538Z,20.66
2016-12-30T07:19:24.520Z,20.66
2016-12-30T07:20:24.497Z,21.04
2016-12-30T07:21:24.478Z,21.04
2016-12-30T07:22:24.463Z,21.42
2016-12-30T07:23:24.447Z,22.08
2016-12-30T07:24:24.420Z,22.08
2016-12-30T07:25:24.404Z,21.8
2016-12-30T07:26:24.383Z,21.51
2016-12-30T07:27:24.363Z,21.42
2016-12-30T07:28:24.346Z,22.08
2016-12-30T07:29:24.326Z,22.27
2016-12-30T07:30:24.307Z,21.33
2016-12-30T07:31:24.288Z,20.66
2016-12-30T07:32:24.268Z,20.29
2016-12-30T07:33:24.254Z,20
2016-12-30T07:34:24.230Z,20.48
2016-12-30T07:35:24.211Z,20.76
2016-12-30T07:36:24.193Z,20.57
2016-12-30T07:37:24.175Z,21.04
2016-12-30T07:38:24.157Z,20.76
2016-12-30T07:39:24.134Z,20.76
2016-12-30T07:40:24.115Z,20.57
2016-12-30T07:41:24.097Z,20.76
2016-12-30T07:42:24.078Z,21.23
2016-12-30T07:43:24.060Z,21.33
2016-12-30T07:44:24.037Z,20.95
2016-12-30T07:45:24.022Z,20.66
2016-12-30T07:46:24.002Z,19.81
2016-12-30T07:47:23.984Z,20.29
2016-12-30T07:48:23.965Z,20.29
2016-12-30T07:49:23.945Z,20.76
2016-12-30T07:50:23.925Z,20.66
2016-12-30T07:51:23.907Z,20
2016-12-30T07:52:23.886Z,19.53
2016-12-30T07:53:23.867Z,19.62
2016-12-30T07:54:23.848Z,20.19
2016-12-30T07:55:23.829Z,21.04
2016-12-30T07:56:23.810Z,21.23
2016-12-30T07:57:23.793Z,21.42
2016-12-30T07:58:23.773Z,21.51
2016-12-30T07:59:23.756Z,21.61
2016-12-30T08:00:23.735Z,21.8
2016-12-30T08:01:23.718Z,21.7
2016-12-30T08:02:23.695Z,22.74
2016-12-30T08:03:23.680Z,23.4
2016-12-30T08:04:23.659Z,23.11
2016-12-30T08:05:23.641Z,23.21
2016-12-30T08:06:23.620Z,23.49
2016-12-30T08:07:23.601Z,23.4
2016-12-30T08:08:23.584Z,23.3
2016-12-30T08:09:23.562Z,22.83
2016-12-30T08:10:23.545Z,22.27
2016-12-30T08:11:23.525Z,22.17
2016-12-30T08:12:23.506Z,21.7
2016-12-30T08:13:23.487Z,21.61
2016-12-30T08:14:23.469Z,21.7
2016-12-30T08:15:23.450Z,22.36
2016-12-30T08:16:23.430Z,22.45
2016-12-30T08:17:23.410Z,22.83
2016-12-30T08:18:23.422Z,23.87
2016-12-30T08:19:23.374Z,25.01
2016-12-30T08:20:23.356Z,25.1
2016-12-30T08:21:23.335Z,24.91
2016-12-30T08:22:23.319Z,24.82
2016-12-30T08:23:23.297Z,24.34
2016-12-30T08:24:23.277Z,24.06
2016-12-30T08:25:23.259Z,23.97
2016-12-30T08:26:23.242Z,23.02
2016-12-30T08:27:23.221Z,22.74
2016-12-30T08:28:23.203Z,22.45
2016-12-30T08:29:23.183Z,22.08
2016-12-30T08:30:23.164Z,21.98
2016-12-30T08:31:23.146Z,21.33
2016-12-30T08:32:23.127Z,21.33
2016-12-30T08:33:23.141Z,21.23
2016-12-30T08:34:23.089Z,21.14
2016-12-30T08:35:23.070Z,20.96
2016-12-30T08:36:23.051Z,20.96
2016-12-30T08:37:23.033Z,21.61
2016-12-30T08:38:23.016Z,22.09
2016-12-30T08:39:22.993Z,22.28
2016-12-30T08:40:22.975Z,22.19
2016-12-30T08:41:22.958Z,24.26
2016-12-30T08:42:22.940Z,26.72
2016-12-30T08:43:22.918Z,28.23
2016-12-30T08:44:22.904Z,28.51
2016-12-30T08:45:22.882Z,28.79
2016-12-30T08:46:22.862Z,28.89
2016-12-30T08:47:22.844Z,27.37
2016-12-30T08:48:22.825Z,26.53
2016-12-30T08:49:22.807Z,27.09
2016-12-30T08:50:22.788Z,26.62
2016-12-30T08:51:22.769Z,27.66
2016-12-30T08:52:22.751Z,27.37
2016-12-30T08:53:22.733Z,27.56
2016-12-30T08:54:22.713Z,31.53
2016-12-30T08:55:22.695Z,37.95
2016-12-30T08:56:22.677Z,41.06
2016-12-30T08:57:22.656Z,41.16
2016-12-30T08:58:22.639Z,41.06
2016-12-30T08:59:22.623Z,40.97
2016-12-30T09:00:22.601Z,47.3
2016-12-30T09:01:22.581Z,52.87
2016-12-30T09:02:22.564Z,57.21
2016-12-30T09:03:22.545Z,59.19
2016-12-30T09:04:22.531Z,57.4
2016-12-30T09:05:22.510Z,55.89
2016-12-30T09:06:22.489Z,56.74
2016-12-30T09:07:22.478Z,60.61
2016-12-30T09:08:22.456Z,62.12
2016-12-30T09:09:22.793Z,60.52
2016-12-30T09:10:22.417Z,60.61
2016-12-30T09:11:22.397Z,57.78
2016-12-30T09:12:22.381Z,59.76
2016-12-30T09:13:22.365Z,61.18
2016-12-30T09:14:22.343Z,63.07
2016-12-30T09:15:22.325Z,67.69
2016-12-30T09:16:22.774Z,64.76
2016-12-30T09:17:22.446Z,69.86
2016-12-30T09:18:22.271Z,90.73
2016-12-30T09:19:22.251Z,86.76
2016-12-30T09:20:22.233Z,81.42
2016-12-30T09:21:22.217Z,77.17
2016-12-30T09:22:22.198Z,86.48
2016-12-30T09:23:22.179Z,84.73
2016-12-30T09:24:22.160Z,83.31
2016-12-30T09:25:22.142Z,99.99
2016-12-30T09:26:22.176Z,96.06
2016-12-30T09:27:22.105Z,99.99
2016-12-30T09:28:22.089Z,90.4
2016-12-30T09:29:22.071Z,99.99
2016-12-30T09:30:22.049Z,99.99
2016-12-30T09:31:22.037Z,99.99
2016-12-30T09:32:22.016Z,99.99
2016-12-30T09:33:21.995Z,99.99
2016-12-30T09:34:21.980Z,99.99
2016-12-30T09:35:22.360Z,99.99
2016-12-30T09:36:21.943Z,99.99
2016-12-30T09:37:21.927Z,98.99
2016-12-30T09:38:21.908Z,99.27
2016-12-30T09:39:21.890Z,99.99
2016-12-30T09:40:21.873Z,99.99
2016-12-30T09:41:21.856Z,99.99
2016-12-30T09:42:21.839Z,99.99
2016-12-30T09:43:21.819Z,99.99
2016-12-30T09:44:21.802Z,99.99
2016-12-30T09:45:21.782Z,99.99
2016-12-30T09:46:21.764Z,99.99
2016-12-30T09:47:21.747Z,99.99
2016-12-30T09:48:21.731Z,99.99
2016-12-30T09:49:21.713Z,99.99
2016-12-30T09:50:21.692Z,99.99
2016-12-30T09:51:21.675Z,99.99
2016-12-30T09:52:21.660Z,99.99
2016-12-30T09:53:21.641Z,99.99
2016-12-30T09:54:21.622Z,99.99
2016-12-30T09:55:21.605Z,99.99
2016-12-30T09:56:21.587Z,99.99
2016-12-30T09:57:21.569Z,99.99
2016-12-30T09:58:21.555Z,99.99
2016-12-30T09:59:21.533Z,99.99
2016-12-30T10:00:21.516Z,99.99
2016-12-30T10:01:21.499Z,99.99
2016-12-30T10:02:21.482Z,99.99
2016-12-30T10:03:21.462Z,99.99
2016-12-30T10:04:21.445Z,99.99
2016-12-30T10:05:21.658Z,99.99
2016-12-30T10:06:21.411Z,99.99
2016-12-30T10:07:21.394Z,99.99
2016-12-30T10:08:21.378Z,99.99
2016-12-30T10:09:21.357Z,99.99
2016-12-30T10:10:21.408Z,99.99
2016-12-30T10:11:21.323Z,99.99
2016-12-30T10:12:21.309Z,99.99
2016-12-30T10:13:21.287Z,99.99
2016-12-30T10:14:21.335Z,99.99
2016-12-30T10:15:21.255Z,99.99
2016-12-30T10:16:21.234Z,99.99
2016-12-30T10:17:21.218Z,99.99
2016-12-30T10:18:21.200Z,99.99
2016-12-30T10:19:21.183Z,99.99
2016-12-30T10:20:21.164Z,99.99
2016-12-30T10:21:21.151Z,99.99
2016-12-30T10:22:21.135Z,99.99
2016-12-30T10:23:21.114Z,99.99
2016-12-30T10:24:21.098Z,99.99
2016-12-30T10:25:21.079Z,99.99
2016-12-30T10:26:21.063Z,99.99
2016-12-30T10:27:21.045Z,99.99
2016-12-30T10:28:21.027Z,99.99
2016-12-30T10:29:21.010Z,99.99
2016-12-30T10:30:20.993Z,99.99
2016-12-30T10:31:20.974Z,99.99
2016-12-30T10:32:20.959Z,99.99
2016-12-30T10:33:20.940Z,99.99
2016-12-30T10:34:20.924Z,99.99
2016-12-30T10:35:20.909Z,99.99
2016-12-30T10:36:20.889Z,99.99
2016-12-30T10:37:20.871Z,99.99
2016-12-30T10:38:20.857Z,99.99
2016-12-30T10:39:20.838Z,99.99
2016-12-30T10:40:20.820Z,93.89
2016-12-30T10:41:20.803Z,93.13
2016-12-30T10:42:20.788Z,94.18
2016-12-30T10:43:21.167Z,92.47
2016-12-30T10:44:20.750Z,94.27
2016-12-30T10:45:20.737Z,88.12
2016-12-30T10:46:20.718Z,89.54
2016-12-30T10:47:20.714Z,91.24
2016-12-30T10:48:21.085Z,94.27
2016-12-30T10:49:20.666Z,89.54
2016-12-30T10:50:20.652Z,84.34
2016-12-30T10:51:20.634Z,82.45
2016-12-30T10:52:20.615Z,80.18
2016-12-30T10:53:20.599Z,79.33
2016-12-30T10:54:20.583Z,77.44
2016-12-30T10:55:20.566Z,78.39
2016-12-30T10:56:20.548Z,76.59
2016-12-30T10:57:20.538Z,73.75
2016-12-30T10:58:20.518Z,71.67
2016-12-30T10:59:20.498Z,71.3
2016-12-30T11:00:20.486Z,73.28
2016-12-30T11:01:20.464Z,73.75
2016-12-30T11:02:20.447Z,76.97
2016-12-30T11:03:20.431Z,69.68
2016-12-30T11:04:20.414Z,68.49
2016-12-30T11:05:20.399Z,67.64
2016-12-30T11:06:20.382Z,65.34
2016-12-30T11:07:20.363Z,65.66
2016-12-30T11:08:20.349Z,64.61
2016-12-30T11:09:20.331Z,65.18
2016-12-30T11:10:20.318Z,66.13
2016-12-30T11:11:20.696Z,68.59
2016-12-30T11:12:20.285Z,66.22
2016-12-30T11:13:20.265Z,66.79
2016-12-30T11:14:20.257Z,70.48
2016-12-30T11:15:20.232Z,79.18
2016-12-30T11:16:20.215Z,74.74
2016-12-30T11:17:20.198Z,67.74
2016-12-30T11:18:20.182Z,63.95
2016-12-30T11:19:20.164Z,65.37
2016-12-30T11:20:20.149Z,62.15
2016-12-30T11:21:20.132Z,61.49
2016-12-30T11:22:20.115Z,60.74
2016-12-30T11:23:20.099Z,61.3
2016-12-30T11:24:20.082Z,60.36
2016-12-30T11:25:20.065Z,60.83
2016-12-30T11:26:20.050Z,62.25
2016-12-30T11:27:20.034Z,63.67
2016-12-30T11:28:20.017Z,62.06
2016-12-30T11:29:20.000Z,59.79
2016-12-30T11:30:19.983Z,60.07
2016-12-30T11:31:19.970Z,61.77
2016-12-30T11:32:19.952Z,59.88
2016-12-30T11:33:19.935Z,61.3
2016-12-30T11:34:19.918Z,64.8
2016-12-30T11:35:19.902Z,61.87
2016-12-30T11:36:19.887Z,63.1
2016-12-30T11:37:19.870Z,60.17
2016-12-30T11:38:19.854Z,58.37
2016-12-30T11:39:19.836Z,58.28
2016-12-30T11:40:19.820Z,59.79
2016-12-30T11:41:19.806Z,58.56
2016-12-30T11:42:19.786Z,59.22
2016-12-30T11:43:19.771Z,61.58
2016-12-30T11:44:19.755Z,63.48
2016-12-30T11:45:19.738Z,62.25
2016-12-30T11:46:19.722Z,63.39
2016-12-30T11:47:19.708Z,66.03
2016-12-30T11:48:19.728Z,63.48
2016-12-30T11:49:19.673Z,59.79
2016-12-30T11:50:19.657Z,61.77
2016-12-30T11:51:19.641Z,60.83
2016-12-30T11:52:19.625Z,59.79
2016-12-30T11:53:19.637Z,58.28
2016-12-30T11:54:19.591Z,58.18
2016-12-30T11:55:19.574Z,60.26
2016-12-30T11:56:19.558Z,60.17
2016-12-30T11:57:19.542Z,56.95
2016-12-30T11:58:19.531Z,56.38
2016-12-30T11:59:19.511Z,55.53
2016-12-30T12:00:19.498Z,54.96
2016-12-30T12:01:19.477Z,56.29
2016-12-30T12:02:19.461Z,55.44
2016-12-30T12:03:19.446Z,54.68
2016-12-30T12:04:19.431Z,52.03
2016-12-30T12:05:19.413Z,53.45
2016-12-30T12:06:19.397Z,56.22
2016-12-30T12:07:19.381Z,57.71
2016-12-30T12:08:19.367Z,59.81
2016-12-30T12:09:19.351Z,56.2
2016-12-30T12:10:19.335Z,53.36
2016-12-30T12:11:19.320Z,53.38
2016-12-30T12:12:19.302Z,54.99
2016-12-30T12:13:19.288Z,53.57
2016-12-30T12:14:19.269Z,53.57
2016-12-30T12:15:19.252Z,52.72
2016-12-30T12:16:19.238Z,54.71
2016-12-30T12:17:19.223Z,57.54
2016-12-30T12:18:19.206Z,57.17
2016-12-30T12:19:19.190Z,55.65
2016-12-30T12:20:19.204Z,54.71
2016-12-30T12:21:19.162Z,54.04
2016-12-30T12:22:19.142Z,53.38
2016-12-30T12:23:19.129Z,53.66
2016-12-30T12:24:19.111Z,53.28
2016-12-30T12:25:19.094Z,54.14
2016-12-30T12:26:19.079Z,55.65
2016-12-30T12:27:19.063Z,56.22
2016-12-30T12:28:19.051Z,56.41
2016-12-30T12:29:19.031Z,56.13
2016-12-30T12:30:19.016Z,57.26
2016-12-30T12:31:19.003Z,60.19
2016-12-30T12:32:18.985Z,60.86
2016-12-30T12:33:18.969Z,57.92
2016-12-30T12:34:18.976Z,54.99
2016-12-30T12:35:18.937Z,53.85
2016-12-30T12:36:18.922Z,52.25
2016-12-30T12:37:18.907Z,50.54
2016-12-30T12:38:18.891Z,49.6
2016-12-30T12:39:18.877Z,50.73
2016-12-30T12:40:18.857Z,51.2
2016-12-30T12:41:18.843Z,54.33
2016-12-30T12:42:18.827Z,55.75
2016-12-30T12:43:18.811Z,55.37
2016-12-30T12:44:18.798Z,53.76
2016-12-30T12:45:18.781Z,53.85
2016-12-30T12:46:18.767Z,51.39
2016-12-30T12:47:18.750Z,48.65
2016-12-30T12:48:18.734Z,49.5
2016-12-30T12:49:18.720Z,52.25
2016-12-30T12:50:18.706Z,54.99
2016-12-30T12:51:18.689Z,56.03
2016-12-30T12:52:18.672Z,56.13
2016-12-30T12:53:18.679Z,54.61
2016-12-30T12:54:18.642Z,54.14
2016-12-30T12:55:18.627Z,53.28
2016-12-30T12:56:18.608Z,51.77
2016-12-30T12:57:18.593Z,52.62